ADDS METAR Data INFO
IDs: Format: Raw Decoded Include TAF

Data at: 1544 UTC 24 Sep 2017

KGCC 241453Z AUTO 34010KT 4SM BR BKN005 OVC009 04/04 A3006 RMK AO2 SLP189 60001 T00390039 51005 $
KGCC 241353Z AUTO 34009KT 8SM OVC005 04/04 A3006 RMK AO2 SLP188 T00390039 $
KGCC 241253Z AUTO 34010KT 10SM OVC005 03/03 A3006 RMK AO2 RAB11E22 SLP189 P0001 T00330033 $
KGCC 241153Z AUTO 33009KT 7SM OVC004 03/03 A3005 RMK AO2 SLP184 60003 70026 T00330033 10044 20033 53001 $
KGCC 241053Z AUTO 34010KT 3SM BR OVC002 03/03 A3004 RMK AO2 SLP182 T00330033 $
KGCC 241051Z AUTO 33009KT 3SM BR OVC002 04/04 A3004 RMK AO2 $
KGCC 241043Z AUTO 34010KT 1 1/2SM BR OVC002 03/03 A3005 RMK AO2 T00330033 $
KGCC 241033Z AUTO 34011KT 2 1/2SM BR OVC003 04/04 A3004 RMK AO2 T00390039 $
KGCC 241020Z AUTO 34010KT 1 3/4SM BR OVC003 04/04 A3004 RMK AO2 T00390039 $
KGCC 241016Z AUTO 33011KT 3SM BR OVC003 04/04 A3004 RMK AO2 T00390039 $
KGCC 240953Z AUTO 34010KT 10SM OVC005 04/04 A3004 RMK AO2 SLP180 T00390039 $
KGCC 240946Z AUTO 34011KT 10SM OVC006 04/04 A3004 RMK AO2 CIG 004V009 T00390039 $
KGCC 240904Z AUTO 34012KT 10SM OVC009 04/04 A3005 RMK AO2 T00390039 $
KGCC 240853Z AUTO 34011KT 10SM OVC006 04/04 A3004 RMK AO2 SLP180 60003 T00390039 53002 $
KGCC 240811Z AUTO 33010KT 8SM BKN006 OVC010 04/04 A3004 RMK AO2 T00390039 $
KGCC 240753Z AUTO 33011KT 4SM BR OVC007 04/04 A3004 RMK AO2 RAE15 SLP181 P0001 T00390039 $
KGCC 240653Z AUTO 34011KT 9SM -RA BKN006 OVC018 04/04 A3004 RMK AO2 SLP175 P0002 T00440044 400610033 $
KGCC 240623Z AUTO 34011KT 9SM -RA SCT006 BKN016 OVC024 04/04 A3004 RMK AO2 P0000 T00440044 $
KGCC 240553Z AUTO 34013KT 8SM -RA BKN005 OVC013 04/04 A3002 RMK AO2 RAE00B42 SLP172 P0002 60005 T00440044 10056 20044 58010 $
KGCC 240537Z AUTO 35012KT 6SM BR OVC005 04/04 A3003 RMK AO2 RAE00 P0001 T00440044 $
KGCC 240500Z AUTO 36012KT 4SM BR BKN004 OVC017 05/05 A3004 RMK AO2 RAE00 P0000 T00500050 $
KGCC 240453Z AUTO 36011KT 4SM -RA BR SCT004 OVC015 05/05 A3004 RMK AO2 RAB13 SLP175 P0002 T00500050 $
KGCC 240439Z AUTO 35010KT 3SM -RA BR SCT004 OVC013 05/05 A3004 RMK AO2 RAB13 P0002 T00500050 $
KGCC 240429Z AUTO 33008KT 2SM -RA BR BKN006 OVC009 05/05 A3006 RMK AO2 RAB13 P0001 T00500050 $
KGCC 240402Z AUTO 34007KT 2SM BR BKN004 OVC008 05/ A3005 RMK AO2 T0050 $
KGCC 240353Z AUTO 34008KT 2SM BR BKN005 OVC008 05/ A3005 RMK AO2 SLP184 T0050 $
KGCC 240334Z AUTO 35009KT 3SM BR OVC005 05/ A3004 RMK AO2 T0050 $
KGCC 240309Z AUTO 36009KT 10SM OVC008 05/ A3004 RMK AO2 T0050 $
KGCC 240253Z AUTO 35009KT 8SM OVC006 05/ A3005 RMK AO2 RAE0157 SLP184 P0000 60001 T0050 50010 $
KGCC 240153Z AUTO 36008KT 4SM -RA BKN005 OVC012 05/ A3006 RMK AO2 RAB37 SLP186 P0001 T0050 $
KGCC 240147Z AUTO 36008KT 4SM -RA BKN005 BKN010 OVC014 05/ A3006 RMK AO2 RAB37 P0001 $
KGCC 240135Z AUTO 35007KT 8SM SCT007 OVC013 05/ A3005 RMK AO2 T0050 $
KGCC 240053Z AUTO 02012KT 6SM BR BKN006 OVC012 05/05 A3004 RMK AO2 CIG 004V010 SLP178 T00500050 $
KGCC 240004Z AUTO 35011KT 6SM BR OVC006 06/05 A3002 RMK AO2 T00560050
KGCC 232353Z AUTO 35012KT 9SM OVC007 06/05 A3002 RMK AO2 RAE2257 CIG 004V010 SLP172 P0001 60013 T00560050 10061 20050 58002
KGCC 232314Z AUTO 36010KT 10SM OVC009 06/05 A3003 RMK AO2 RAE2257 P0001 T00560050
KGCC 232253Z AUTO 01008KT 10SM -RA OVC010 06/05 A3004 RMK AO2 RAB15 SLP178 P0002 T00560050
KGCC 232228Z AUTO 36005KT 10SM -RA OVC012 06/04 A3005 RMK AO2 RAB15 P0001 T00560044
KGCC 232153Z AUTO 36007KT 10SM OVC007 06/05 A3002 RMK AO2 RAE18 CIG 006V011 SLP174 P0001 T00560050
KGCC 232053Z AUTO 01008KT 8SM -RA BKN007 OVC012 06/05 A3003 RMK AO2 SLP175 P0004 60009 T00560050 55004
KGCC 232034Z AUTO 36006KT 8SM -RA OVC007 06/04 A3004 RMK AO2 P0002 T00560044
KGCC 231953Z AUTO 01008KT 4SM -RA BR OVC005 05/04 A3002 RMK AO2 SLP175 P0005 T00500044
KGCC 231916Z AUTO 34011KT 9SM -RA BKN005 OVC013 06/05 A3003 RMK AO2 P0001 T00560050
KGCC 231853Z AUTO 36008KT 10SM -RA OVC009 06/05 A3004 RMK AO2 RAE07B50 CIG 006V012 SLP176 P0000 T00610050
KGCC 231851Z AUTO 35007KT 10SM -RA OVC009 06/05 A3004 RMK AO2 RAE07B50 CIG 006V012 P0000
KGCC 231838Z AUTO 02008KT 10SM OVC006 06/05 A3004 RMK AO2 RAE07 CIG 006V010 P0000 T00560050
KGCC 231814Z AUTO 34006KT 10SM OVC008 06/04 A3005 RMK AO2 RAE07 CIG 006V010 P0000 T00560044
KGCC 231753Z AUTO 35004KT 8SM -RA OVC005 05/04 A3006 RMK AO2 RAB29 SLP183 P0002 60005 T00500044 10056 20039 55001
KGCC 231741Z AUTO 31007KT 5SM -RA BR OVC005 05/04 A3005 RMK AO2 RAB29 P0001 T00500044
KGCC 231702Z AUTO 04004KT 10SM OVC007 06/04 A3005 RMK AO2 CIG 005V010 T00560044
KGCC 231653Z AUTO 04004KT 10SM OVC006 06/04 A3005 RMK AO2 RAE50 CIG 005V010 SLP178 P0002 T00560044
KGCC 231553Z AUTO 06003KT 10SM -RA OVC006 05/04 A3006 RMK AO2 RAB12 SLP182 P0001 T00500039
KGCC 231453Z AUTO 07005KT 10SM OVC007 04/03 A3006 RMK AO2 SLP184 T00440033 51009
KGCC 231353Z AUTO 36004KT 10SM OVC007 04/03 A3006 RMK AO2 SLP181 T00440028
KGCC 231253Z AUTO 01006KT 10SM OVC008 04/03 A3005 RMK AO2 SLP177 T00440028
KGCC 231235Z AUTO 01006KT 10SM OVC009 04/03 A3005 RMK AO2 T00440028
KGCC 231153Z AUTO 01006KT 10SM OVC012 04/02 A3003 RMK AO2 SLP168 T00440022 10056 20033 56007
KGCC 231053Z AUTO 04008KT 10SM OVC010 04/02 A3004 RMK AO2 SLP170 T00440022
KGCC 231038Z AUTO 04007KT 10SM BKN010 OVC037 04/02 A3004 RMK AO2 T00440022
KGCC 230953Z AUTO 02010KT 10SM OVC038 04/02 A3004 RMK AO2 SLP171 T00440022
KGCC 230903Z AUTO 35008KT 10SM SCT013 OVC041 04/02 A3005 RMK AO2 T00440022
KGCC 230853Z AUTO 33007KT 10SM BKN013 OVC042 04/02 A3006 RMK AO2 SLP176 T00440022 53009
KGCC 230753Z AUTO 34004KT 10SM BKN110 03/02 A3004 RMK AO2 PRESRR SLP174 T00330017
KGCC 230653Z AUTO 01008KT 10SM BKN048 BKN070 BKN120 05/02 A3002 RMK AO2 SLP163 T00500022 401060044
KGCC 230553Z AUTO 36011KT 10SM BKN090 OVC100 06/02 A3002 RMK AO2 SLP165 T00560017 10094 20056 50009
KGCC 230516Z AUTO 36013KT 10SM SCT020 OVC065 06/02 A3001 RMK AO2 T00560017
KGCC 230453Z AUTO 02010KT 10SM BKN022 OVC065 06/02 A3003 RMK AO2 SLP168 T00610022
KGCC 230412Z AUTO 01009KT 10SM BKN024 OVC070 07/02 A3003 RMK AO2 T00670022
KGCC 230353Z AUTO 04011KT 10SM FEW024 OVC070 07/02 A3001 RMK AO2 SLP159 T00670017